Terminal Aerodrome Forecast
Issued by NWS

Home | Current Version | Previous Version | Text Only | Print | Product List | Glossary On
Versions: 1 2 3 4 5 6 7 8 9 10 11 12 13 14 15 16 17 18 19 20 21 22 23 24 25 26 27 28 29 30 31 32 33 34 35 36 37 38 39 40
000
FTAK31 PAFA 281136
TAFAQT
TAF
PAQT 281136Z 2812/2912 06009KT 1/4SM FZFG VV003
     FM281700 06018KT 3SM BR BKN007
     FM282000 07020KT 5SM BR SCT007 OVC010
     FM290400 04011KT 2SM -SHRA BR OVC005
     FM290800 03010KT 2SM -FZRASN BR OVC005=

USA.gov is the U.S. government's official web portal to all federal, state and local government web resources and services.